sensor_id;sensor_type;location;lat;lon;timestamp;P1;durP1;ratioP1;P2;durP2;ratioP2
67747;SDS011;54543;50.712;6.070;2023-02-28T00:00:09;2.92;;;1.90;;
67747;SDS011;54543;50.712;6.070;2023-02-28T00:02:37;2.65;;;1.65;;
67747;SDS011;54543;50.712;6.070;2023-02-28T00:05:03;3.42;;;1.98;;
67747;SDS011;54543;50.712;6.070;2023-02-28T00:07:30;3.53;;;2.00;;
67747;SDS011;54543;50.712;6.070;2023-02-28T00:09:56;2.55;;;1.60;;
67747;SDS011;54543;50.712;6.070;2023-02-28T00:12:22;2.65;;;1.80;;
67747;SDS011;54543;50.712;6.070;2023-02-28T00:14:48;8.60;;;2.10;;
67747;SDS011;54543;50.712;6.070;2023-02-28T00:17:14;3.08;;;1.90;;
67747;SDS011;54543;50.712;6.070;2023-02-28T00:19:39;3.30;;;2.05;;
67747;SDS011;54543;50.712;6.070;2023-02-28T00:22:05;3.53;;;2.25;;
67747;SDS011;54543;50.712;6.070;2023-02-28T00:24:30;3.42;;;2.00;;
67747;SDS011;54543;50.712;6.070;2023-02-28T00:26:56;3.90;;;2.30;;
67747;SDS011;54543;50.712;6.070;2023-02-28T00:29:22;4.13;;;2.10;;
67747;SDS011;54543;50.712;6.070;2023-02-28T00:31:47;4.22;;;2.40;;
67747;SDS011;54543;50.712;6.070;2023-02-28T00:34:13;3.22;;;2.15;;
67747;SDS011;54543;50.712;6.070;2023-02-28T00:36:38;4.05;;;1.83;;
67747;SDS011;54543;50.712;6.070;2023-02-28T00:39:05;3.60;;;1.85;;
67747;SDS011;54543;50.712;6.070;2023-02-28T00:41:31;4.53;;;2.25;;
67747;SDS011;54543;50.712;6.070;2023-02-28T00:43:56;4.13;;;1.88;;
67747;SDS011;54543;50.712;6.070;2023-02-28T00:46:22;2.83;;;1.90;;
67747;SDS011;54543;50.712;6.070;2023-02-28T00:48:47;1.90;;;1.73;;
67747;SDS011;54543;50.712;6.070;2023-02-28T00:51:12;2.38;;;1.60;;
67747;SDS011;54543;50.712;6.070;2023-02-28T00:53:38;3.70;;;1.98;;
67747;SDS011;54543;50.712;6.070;2023-02-28T00:56:04;3.10;;;1.80;;
67747;SDS011;54543;50.712;6.070;2023-02-28T00:58:29;5.10;;;1.80;;
67747;SDS011;54543;50.712;6.070;2023-02-28T01:00:55;2.80;;;1.60;;
67747;SDS011;54543;50.712;6.070;2023-02-28T01:03:21;3.08;;;1.92;;
67747;SDS011;54543;50.712;6.070;2023-02-28T01:05:48;2.38;;;1.60;;
67747;SDS011;54543;50.712;6.070;2023-02-28T01:08:14;2.55;;;1.63;;
67747;SDS011;54543;50.712;6.070;2023-02-28T01:10:40;2.72;;;1.55;;
67747;SDS011;54543;50.712;6.070;2023-02-28T01:13:06;2.17;;;1.40;;
67747;SDS011;54543;50.712;6.070;2023-02-28T01:15:32;2.95;;;1.80;;
67747;SDS011;54543;50.712;6.070;2023-02-28T01:17:58;2.20;;;1.40;;
67747;SDS011;54543;50.712;6.070;2023-02-28T01:20:24;2.65;;;1.45;;
67747;SDS011;54543;50.712;6.070;2023-02-28T01:22:49;1.95;;;1.55;;
67747;SDS011;54543;50.712;6.070;2023-02-28T01:25:15;4.63;;;1.90;;
67747;SDS011;54543;50.712;6.070;2023-02-28T01:27:40;3.78;;;1.73;;
67747;SDS011;54543;50.712;6.070;2023-02-28T01:30:07;1.85;;;1.40;;
67747;SDS011;54543;50.712;6.070;2023-02-28T01:32:35;1.95;;;1.30;;
67747;SDS011;54543;50.712;6.070;2023-02-28T01:35:01;2.75;;;1.42;;
67747;SDS011;54543;50.712;6.070;2023-02-28T01:37:26;1.75;;;1.52;;
67747;SDS011;54543;50.712;6.070;2023-02-28T01:39:52;1.95;;;1.48;;
67747;SDS011;54543;50.712;6.070;2023-02-28T01:42:17;1.75;;;1.20;;
67747;SDS011;54543;50.712;6.070;2023-02-28T01:45:00;2.25;;;1.40;;
67747;SDS011;54543;50.712;6.070;2023-02-28T01:47:34;3.53;;;1.55;;
67747;SDS011;54543;50.712;6.070;2023-02-28T01:50:04;2.35;;;1.55;;
67747;SDS011;54543;50.712;6.070;2023-02-28T01:52:34;2.55;;;1.35;;
67747;SDS011;54543;50.712;6.070;2023-02-28T01:55:01;3.17;;;1.30;;
67747;SDS011;54543;50.712;6.070;2023-02-28T01:57:29;3.45;;;1.63;;
67747;SDS011;54543;50.712;6.070;2023-02-28T02:00:06;2.35;;;1.50;;
67747;SDS011;54543;50.712;6.070;2023-02-28T02:02:35;2.03;;;1.45;;
67747;SDS011;54543;50.712;6.070;2023-02-28T02:05:09;2.20;;;1.50;;
67747;SDS011;54543;50.712;6.070;2023-02-28T02:07:38;2.53;;;1.20;;
67747;SDS011;54543;50.712;6.070;2023-02-28T02:10:10;3.47;;;1.67;;
67747;SDS011;54543;50.712;6.070;2023-02-28T02:15:28;1.77;;;1.27;;
67747;SDS011;54543;50.712;6.070;2023-02-28T02:18:01;2.20;;;1.45;;
67747;SDS011;54543;50.712;6.070;2023-02-28T02:32:09;2.30;;;1.40;;
67747;SDS011;54543;50.712;6.070;2023-02-28T02:34:48;2.80;;;1.70;;
67747;SDS011;54543;50.712;6.070;2023-02-28T02:43:22;2.60;;;1.52;;
67747;SDS011;54543;50.712;6.070;2023-02-28T02:45:55;2.08;;;1.52;;
67747;SDS011;54543;50.712;6.070;2023-02-28T02:48:27;2.88;;;1.58;;
67747;SDS011;54543;50.712;6.070;2023-02-28T02:50:57;2.88;;;1.67;;
67747;SDS011;54543;50.712;6.070;2023-02-28T02:53:27;2.83;;;1.67;;
67747;SDS011;54543;50.712;6.070;2023-02-28T02:56:00;3.72;;;1.63;;
67747;SDS011;54543;50.712;6.070;2023-02-28T02:58:29;5.22;;;1.50;;
67747;SDS011;54543;50.712;6.070;2023-02-28T03:01:00;2.80;;;1.30;;
67747;SDS011;54543;50.712;6.070;2023-02-28T03:03:27;3.08;;;1.35;;
67747;SDS011;54543;50.712;6.070;2023-02-28T03:05:59;2.28;;;1.20;;
67747;SDS011;54543;50.712;6.070;2023-02-28T03:08:26;3.03;;;1.50;;
67747;SDS011;54543;50.712;6.070;2023-02-28T03:10:56;3.30;;;1.48;;
67747;SDS011;54543;50.712;6.070;2023-02-28T03:19:10;1.80;;;1.17;;
67747;SDS011;54543;50.712;6.070;2023-02-28T03:27:10;1.40;;;1.10;;
67747;SDS011;54543;50.712;6.070;2023-02-28T03:29:43;2.90;;;1.40;;
67747;SDS011;54543;50.712;6.070;2023-02-28T03:34:47;2.90;;;1.50;;
67747;SDS011;54543;50.712;6.070;2023-02-28T03:37:16;1.65;;;1.40;;
67747;SDS011;54543;50.712;6.070;2023-02-28T03:39:47;1.98;;;1.23;;
67747;SDS011;54543;50.712;6.070;2023-02-28T03:42:19;3.03;;;1.40;;
67747;SDS011;54543;50.712;6.070;2023-02-28T03:47:23;1.85;;;1.60;;
67747;SDS011;54543;50.712;6.070;2023-02-28T03:49:56;2.17;;;1.50;;
67747;SDS011;54543;50.712;6.070;2023-02-28T03:52:25;2.10;;;1.30;;
67747;SDS011;54543;50.712;6.070;2023-02-28T03:54:55;2.58;;;1.58;;
67747;SDS011;54543;50.712;6.070;2023-02-28T03:57:31;4.70;;;1.33;;
67747;SDS011;54543;50.712;6.070;2023-02-28T04:00:09;1.70;;;1.30;;
67747;SDS011;54543;50.712;6.070;2023-02-28T04:02:39;1.52;;;1.27;;
67747;SDS011;54543;50.712;6.070;2023-02-28T04:05:05;2.22;;;1.35;;
67747;SDS011;54543;50.712;6.070;2023-02-28T04:07:32;2.50;;;1.58;;
67747;SDS011;54543;50.712;6.070;2023-02-28T04:09:58;3.08;;;1.30;;
67747;SDS011;54543;50.712;6.070;2023-02-28T04:12:24;3.15;;;1.35;;
67747;SDS011;54543;50.712;6.070;2023-02-28T04:14:50;2.50;;;1.60;;
67747;SDS011;54543;50.712;6.070;2023-02-28T04:17:16;2.50;;;1.50;;
67747;SDS011;54543;50.712;6.070;2023-02-28T04:19:42;1.55;;;1.20;;
67747;SDS011;54543;50.712;6.070;2023-02-28T04:22:08;1.50;;;1.30;;
67747;SDS011;54543;50.712;6.070;2023-02-28T04:24:34;1.30;;;1.15;;
67747;SDS011;54543;50.712;6.070;2023-02-28T04:27:00;2.35;;;1.40;;
67747;SDS011;54543;50.712;6.070;2023-02-28T04:29:27;2.30;;;1.30;;
67747;SDS011;54543;50.712;6.070;2023-02-28T04:31:55;1.65;;;1.50;;
67747;SDS011;54543;50.712;6.070;2023-02-28T04:34:23;2.35;;;1.33;;
67747;SDS011;54543;50.712;6.070;2023-02-28T04:36:49;2.15;;;1.42;;
67747;SDS011;54543;50.712;6.070;2023-02-28T04:39:16;3.33;;;1.80;;
67747;SDS011;54543;50.712;6.070;2023-02-28T04:41:43;2.47;;;1.45;;
67747;SDS011;54543;50.712;6.070;2023-02-28T04:44:10;2.30;;;1.10;;
67747;SDS011;54543;50.712;6.070;2023-02-28T04:46:36;1.67;;;1.20;;
67747;SDS011;54543;50.712;6.070;2023-02-28T04:49:01;2.55;;;1.60;;
67747;SDS011;54543;50.712;6.070;2023-02-28T04:51:27;2.67;;;1.75;;
67747;SDS011;54543;50.712;6.070;2023-02-28T04:53:53;1.70;;;1.45;;
67747;SDS011;54543;50.712;6.070;2023-02-28T04:56:19;2.80;;;1.60;;
67747;SDS011;54543;50.712;6.070;2023-02-28T04:58:45;3.30;;;1.67;;
67747;SDS011;54543;50.712;6.070;2023-02-28T05:01:30;3.55;;;1.80;;
67747;SDS011;54543;50.712;6.070;2023-02-28T05:06:24;2.65;;;1.20;;
67747;SDS011;54543;50.712;6.070;2023-02-28T05:08:51;2.80;;;1.40;;
67747;SDS011;54543;50.712;6.070;2023-02-28T05:11:19;2.92;;;1.48;;
67747;SDS011;54543;50.712;6.070;2023-02-28T05:13:46;3.20;;;1.35;;
67747;SDS011;54543;50.712;6.070;2023-02-28T05:16:13;2.38;;;1.50;;
67747;SDS011;54543;50.712;6.070;2023-02-28T05:18:39;1.83;;;1.45;;
67747;SDS011;54543;50.712;6.070;2023-02-28T05:21:05;3.15;;;2.05;;
67747;SDS011;54543;50.712;6.070;2023-02-28T05:23:31;1.75;;;1.23;;
67747;SDS011;54543;50.712;6.070;2023-02-28T05:25:57;4.88;;;1.73;;
67747;SDS011;54543;50.712;6.070;2023-02-28T05:28:23;2.60;;;1.50;;
67747;SDS011;54543;50.712;6.070;2023-02-28T05:30:48;2.97;;;1.63;;
67747;SDS011;54543;50.712;6.070;2023-02-28T05:33:14;2.03;;;1.55;;
67747;SDS011;54543;50.712;6.070;2023-02-28T05:35:40;2.13;;;1.58;;
67747;SDS011;54543;50.712;6.070;2023-02-28T05:38:07;2.42;;;1.50;;
67747;SDS011;54543;50.712;6.070;2023-02-28T05:40:34;1.55;;;1.40;;
67747;SDS011;54543;50.712;6.070;2023-02-28T05:42:59;3.15;;;1.70;;
67747;SDS011;54543;50.712;6.070;2023-02-28T05:45:25;3.67;;;1.75;;
67747;SDS011;54543;50.712;6.070;2023-02-28T05:47:54;2.20;;;1.50;;
67747;SDS011;54543;50.712;6.070;2023-02-28T05:50:20;4.35;;;1.92;;
67747;SDS011;54543;50.712;6.070;2023-02-28T05:52:49;2.95;;;1.60;;
67747;SDS011;54543;50.712;6.070;2023-02-28T05:55:15;3.10;;;1.80;;
67747;SDS011;54543;50.712;6.070;2023-02-28T05:57:41;2.63;;;1.77;;
67747;SDS011;54543;50.712;6.070;2023-02-28T06:00:07;3.53;;;1.92;;
67747;SDS011;54543;50.712;6.070;2023-02-28T06:02:34;2.95;;;1.77;;
67747;SDS011;54543;50.712;6.070;2023-02-28T06:04:59;2.97;;;1.80;;
67747;SDS011;54543;50.712;6.070;2023-02-28T06:07:24;4.20;;;1.92;;
67747;SDS011;54543;50.712;6.070;2023-02-28T06:09:50;2.10;;;1.52;;
67747;SDS011;54543;50.712;6.070;2023-02-28T06:12:15;3.47;;;1.70;;
67747;SDS011;54543;50.712;6.070;2023-02-28T06:14:41;3.08;;;1.85;;
67747;SDS011;54543;50.712;6.070;2023-02-28T06:17:08;2.50;;;1.60;;
67747;SDS011;54543;50.712;6.070;2023-02-28T06:19:34;2.03;;;1.25;;
67747;SDS011;54543;50.712;6.070;2023-02-28T06:22:04;2.25;;;1.42;;
67747;SDS011;54543;50.712;6.070;2023-02-28T06:24:30;2.97;;;1.70;;
67747;SDS011;54543;50.712;6.070;2023-02-28T06:26:56;2.92;;;1.70;;
67747;SDS011;54543;50.712;6.070;2023-02-28T06:29:24;3.20;;;1.90;;
67747;SDS011;54543;50.712;6.070;2023-02-28T06:31:50;2.85;;;1.75;;
67747;SDS011;54543;50.712;6.070;2023-02-28T06:34:16;3.33;;;1.60;;
67747;SDS011;54543;50.712;6.070;2023-02-28T06:36:41;5.05;;;2.60;;
67747;SDS011;54543;50.712;6.070;2023-02-28T06:39:07;3.95;;;1.83;;
67747;SDS011;54543;50.712;6.070;2023-02-28T06:41:34;3.42;;;1.90;;
67747;SDS011;54543;50.712;6.070;2023-02-28T06:44:10;4.55;;;1.77;;
67747;SDS011;54543;50.712;6.070;2023-02-28T06:46:39;2.90;;;1.67;;
67747;SDS011;54543;50.712;6.070;2023-02-28T06:49:06;3.58;;;1.42;;
67747;SDS011;54543;50.712;6.070;2023-02-28T06:51:36;2.55;;;1.58;;
67747;SDS011;54543;50.712;6.070;2023-02-28T06:54:03;3.10;;;1.80;;
67747;SDS011;54543;50.712;6.070;2023-02-28T06:56:29;7.70;;;2.30;;
67747;SDS011;54543;50.712;6.070;2023-02-28T06:58:55;4.40;;;2.15;;
67747;SDS011;54543;50.712;6.070;2023-02-28T07:01:21;6.80;;;3.05;;
67747;SDS011;54543;50.712;6.070;2023-02-28T07:03:48;5.47;;;3.15;;
67747;SDS011;54543;50.712;6.070;2023-02-28T07:06:17;5.68;;;2.50;;
67747;SDS011;54543;50.712;6.070;2023-02-28T07:08:44;4.90;;;2.33;;
67747;SDS011;54543;50.712;6.070;2023-02-28T07:11:10;5.80;;;2.55;;
67747;SDS011;54543;50.712;6.070;2023-02-28T07:13:36;6.40;;;2.58;;
67747;SDS011;54543;50.712;6.070;2023-02-28T07:16:03;4.90;;;2.53;;
67747;SDS011;54543;50.712;6.070;2023-02-28T07:18:30;4.70;;;2.67;;
67747;SDS011;54543;50.712;6.070;2023-02-28T07:20:56;4.38;;;2.35;;
67747;SDS011;54543;50.712;6.070;2023-02-28T07:23:21;4.82;;;2.35;;
67747;SDS011;54543;50.712;6.070;2023-02-28T07:25:47;4.85;;;2.47;;
67747;SDS011;54543;50.712;6.070;2023-02-28T07:28:13;4.05;;;2.15;;
67747;SDS011;54543;50.712;6.070;2023-02-28T07:30:39;2.72;;;1.80;;
67747;SDS011;54543;50.712;6.070;2023-02-28T07:33:05;3.35;;;2.05;;
67747;SDS011;54543;50.712;6.070;2023-02-28T07:35:31;4.25;;;1.95;;
67747;SDS011;54543;50.712;6.070;2023-02-28T07:37:57;3.70;;;1.80;;
67747;SDS011;54543;50.712;6.070;2023-02-28T07:40:23;3.75;;;1.98;;
67747;SDS011;54543;50.712;6.070;2023-02-28T07:42:50;4.55;;;2.30;;
67747;SDS011;54543;50.712;6.070;2023-02-28T07:45:15;4.05;;;1.95;;
67747;SDS011;54543;50.712;6.070;2023-02-28T07:47:42;3.65;;;1.80;;
67747;SDS011;54543;50.712;6.070;2023-02-28T07:50:09;4.93;;;2.35;;
67747;SDS011;54543;50.712;6.070;2023-02-28T07:52:36;3.65;;;1.85;;
67747;SDS011;54543;50.712;6.070;2023-02-28T07:55:02;5.60;;;2.20;;
67747;SDS011;54543;50.712;6.070;2023-02-28T07:57:30;3.03;;;1.90;;
67747;SDS011;54543;50.712;6.070;2023-02-28T07:59:56;3.25;;;1.83;;
67747;SDS011;54543;50.712;6.070;2023-02-28T08:02:21;2.78;;;1.60;;
67747;SDS011;54543;50.712;6.070;2023-02-28T08:04:47;2.10;;;1.70;;
67747;SDS011;54543;50.712;6.070;2023-02-28T08:07:13;2.65;;;1.63;;
67747;SDS011;54543;50.712;6.070;2023-02-28T08:09:40;2.85;;;1.77;;
67747;SDS011;54543;50.712;6.070;2023-02-28T08:12:07;3.40;;;2.13;;
67747;SDS011;54543;50.712;6.070;2023-02-28T08:14:33;3.20;;;2.00;;
67747;SDS011;54543;50.712;6.070;2023-02-28T08:16:59;2.28;;;1.95;;
67747;SDS011;54543;50.712;6.070;2023-02-28T08:19:25;3.45;;;2.20;;
67747;SDS011;54543;50.712;6.070;2023-02-28T08:21:50;3.50;;;2.03;;
67747;SDS011;54543;50.712;6.070;2023-02-28T08:24:16;4.13;;;2.53;;
67747;SDS011;54543;50.712;6.070;2023-02-28T08:26:41;4.70;;;2.40;;
67747;SDS011;54543;50.712;6.070;2023-02-28T08:29:07;4.32;;;2.40;;
67747;SDS011;54543;50.712;6.070;2023-02-28T08:31:32;3.40;;;2.20;;
67747;SDS011;54543;50.712;6.070;2023-02-28T08:34:03;3.92;;;2.30;;
67747;SDS011;54543;50.712;6.070;2023-02-28T08:36:32;4.40;;;2.53;;
67747;SDS011;54543;50.712;6.070;2023-02-28T08:38:58;3.85;;;2.40;;
67747;SDS011;54543;50.712;6.070;2023-02-28T08:41:24;5.00;;;2.88;;
67747;SDS011;54543;50.712;6.070;2023-02-28T08:43:50;4.55;;;2.92;;
67747;SDS011;54543;50.712;6.070;2023-02-28T08:46:16;4.13;;;2.50;;
67747;SDS011;54543;50.712;6.070;2023-02-28T08:48:42;3.75;;;2.33;;
67747;SDS011;54543;50.712;6.070;2023-02-28T08:51:10;3.88;;;2.58;;
67747;SDS011;54543;50.712;6.070;2023-02-28T08:53:41;3.70;;;2.20;;
67747;SDS011;54543;50.712;6.070;2023-02-28T08:56:07;4.80;;;2.47;;
67747;SDS011;54543;50.712;6.070;2023-02-28T08:58:35;4.07;;;2.35;;
67747;SDS011;54543;50.712;6.070;2023-02-28T09:01:07;4.93;;;2.08;;
67747;SDS011;54543;50.712;6.070;2023-02-28T09:03:34;3.25;;;1.92;;
67747;SDS011;54543;50.712;6.070;2023-02-28T09:06:00;9.75;;;3.30;;
67747;SDS011;54543;50.712;6.070;2023-02-28T09:08:27;5.28;;;2.72;;
67747;SDS011;54543;50.712;6.070;2023-02-28T09:10:55;4.35;;;2.40;;
67747;SDS011;54543;50.712;6.070;2023-02-28T09:13:23;4.35;;;2.58;;
67747;SDS011;54543;50.712;6.070;2023-02-28T09:15:50;9.20;;;2.83;;
67747;SDS011;54543;50.712;6.070;2023-02-28T09:18:16;4.05;;;2.22;;
67747;SDS011;54543;50.712;6.070;2023-02-28T09:20:42;3.15;;;2.10;;
67747;SDS011;54543;50.712;6.070;2023-02-28T09:23:09;4.50;;;2.90;;
67747;SDS011;54543;50.712;6.070;2023-02-28T09:25:36;3.42;;;2.10;;
67747;SDS011;54543;50.712;6.070;2023-02-28T09:28:02;5.80;;;3.45;;
67747;SDS011;54543;50.712;6.070;2023-02-28T09:30:28;5.28;;;2.83;;
67747;SDS011;54543;50.712;6.070;2023-02-28T09:32:54;7.55;;;3.50;;
67747;SDS011;54543;50.712;6.070;2023-02-28T09:35:20;4.85;;;3.08;;
67747;SDS011;54543;50.712;6.070;2023-02-28T09:37:47;6.57;;;3.67;;
67747;SDS011;54543;50.712;6.070;2023-02-28T09:40:14;5.20;;;2.60;;
67747;SDS011;54543;50.712;6.070;2023-02-28T09:42:44;4.85;;;2.42;;
67747;SDS011;54543;50.712;6.070;2023-02-28T09:45:33;4.22;;;2.50;;
67747;SDS011;54543;50.712;6.070;2023-02-28T09:48:23;3.85;;;2.15;;
67747;SDS011;54543;50.712;6.070;2023-02-28T09:50:59;4.18;;;2.30;;
67747;SDS011;54543;50.712;6.070;2023-02-28T09:58:34;4.22;;;2.28;;
67747;SDS011;54543;50.712;6.070;2023-02-28T10:06:28;3.63;;;2.30;;
67747;SDS011;54543;50.712;6.070;2023-02-28T10:09:11;2.92;;;1.98;;
67747;SDS011;54543;50.712;6.070;2023-02-28T10:11:42;4.05;;;1.95;;
67747;SDS011;54543;50.712;6.070;2023-02-28T10:14:17;5.93;;;2.40;;
67747;SDS011;54543;50.712;6.070;2023-02-28T10:16:47;3.10;;;1.80;;
67747;SDS011;54543;50.712;6.070;2023-02-28T10:22:03;3.53;;;2.10;;
67747;SDS011;54543;50.712;6.070;2023-02-28T10:24:45;3.35;;;2.10;;
67747;SDS011;54543;50.712;6.070;2023-02-28T10:27:17;2.85;;;1.90;;
67747;SDS011;54543;50.712;6.070;2023-02-28T10:29:45;4.47;;;2.60;;
67747;SDS011;54543;50.712;6.070;2023-02-28T10:32:14;3.70;;;2.13;;
67747;SDS011;54543;50.712;6.070;2023-02-28T10:34:42;3.80;;;2.30;;
67747;SDS011;54543;50.712;6.070;2023-02-28T10:37:07;3.30;;;2.17;;
67747;SDS011;54543;50.712;6.070;2023-02-28T10:47:31;2.58;;;1.73;;
67747;SDS011;54543;50.712;6.070;2023-02-28T10:49:59;4.60;;;2.22;;
67747;SDS011;54543;50.712;6.070;2023-02-28T10:52:35;2.88;;;1.75;;
67747;SDS011;54543;50.712;6.070;2023-02-28T10:55:20;2.78;;;1.88;;
67747;SDS011;54543;50.712;6.070;2023-02-28T10:57:48;2.17;;;1.73;;
67747;SDS011;54543;50.712;6.070;2023-02-28T11:00:16;2.55;;;1.80;;
67747;SDS011;54543;50.712;6.070;2023-02-28T11:02:50;3.28;;;1.90;;
67747;SDS011;54543;50.712;6.070;2023-02-28T11:05:30;4.22;;;2.33;;
67747;SDS011;54543;50.712;6.070;2023-02-28T11:08:02;2.65;;;1.70;;
67747;SDS011;54543;50.712;6.070;2023-02-28T11:10:35;3.95;;;2.25;;
67747;SDS011;54543;50.712;6.070;2023-02-28T11:13:01;3.78;;;2.38;;
67747;SDS011;54543;50.712;6.070;2023-02-28T11:15:30;3.22;;;1.95;;
67747;SDS011;54543;50.712;6.070;2023-02-28T11:20:30;4.57;;;2.45;;
67747;SDS011;54543;50.712;6.070;2023-02-28T11:22:58;4.82;;;2.40;;
67747;SDS011;54543;50.712;6.070;2023-02-28T11:25:29;3.75;;;2.40;;
67747;SDS011;54543;50.712;6.070;2023-02-28T11:28:06;4.32;;;2.38;;
67747;SDS011;54543;50.712;6.070;2023-02-28T11:33:40;4.15;;;2.53;;
67747;SDS011;54543;50.712;6.070;2023-02-28T11:36:12;4.68;;;2.40;;
67747;SDS011;54543;50.712;6.070;2023-02-28T11:38:40;4.38;;;2.42;;
67747;SDS011;54543;50.712;6.070;2023-02-28T11:41:17;4.93;;;2.53;;
67747;SDS011;54543;50.712;6.070;2023-02-28T11:46:57;4.75;;;2.75;;
67747;SDS011;54543;50.712;6.070;2023-02-28T11:55:07;3.80;;;2.00;;
67747;SDS011;54543;50.712;6.070;2023-02-28T12:06:00;2.78;;;1.90;;
67747;SDS011;54543;50.712;6.070;2023-02-28T12:19:53;3.90;;;2.22;;
67747;SDS011;54543;50.712;6.070;2023-02-28T12:25:02;3.28;;;1.95;;
67747;SDS011;54543;50.712;6.070;2023-02-28T12:27:38;4.35;;;2.30;;
67747;SDS011;54543;50.712;6.070;2023-02-28T12:32:48;2.90;;;1.80;;
67747;SDS011;54543;50.712;6.070;2023-02-28T12:35:21;3.40;;;2.10;;
67747;SDS011;54543;50.712;6.070;2023-02-28T12:37:52;4.22;;;2.30;;
67747;SDS011;54543;50.712;6.070;2023-02-28T12:40:33;3.87;;;2.27;;
67747;SDS011;54543;50.712;6.070;2023-02-28T12:43:15;3.63;;;2.30;;
67747;SDS011;54543;50.712;6.070;2023-02-28T12:45:51;3.53;;;2.13;;
67747;SDS011;54543;50.712;6.070;2023-02-28T12:48:37;3.97;;;2.40;;
67747;SDS011;54543;50.712;6.070;2023-02-28T12:51:07;4.53;;;2.40;;
67747;SDS011;54543;50.712;6.070;2023-02-28T12:53:57;4.18;;;3.00;;
67747;SDS011;54543;50.712;6.070;2023-02-28T12:56:22;3.90;;;2.25;;
67747;SDS011;54543;50.712;6.070;2023-02-28T13:07:29;4.38;;;2.30;;
67747;SDS011;54543;50.712;6.070;2023-02-28T13:10:22;4.05;;;2.10;;
67747;SDS011;54543;50.712;6.070;2023-02-28T13:12:54;4.20;;;2.35;;
67747;SDS011;54543;50.712;6.070;2023-02-28T13:15:21;3.13;;;2.15;;
67747;SDS011;54543;50.712;6.070;2023-02-28T13:17:53;3.00;;;1.98;;
67747;SDS011;54543;50.712;6.070;2023-02-28T13:20:35;3.53;;;2.50;;
67747;SDS011;54543;50.712;6.070;2023-02-28T13:34:34;3.63;;;2.40;;
67747;SDS011;54543;50.712;6.070;2023-02-28T13:37:43;4.10;;;2.25;;
67747;SDS011;54543;50.712;6.070;2023-02-28T13:39:50;3.10;;;1.90;;
67747;SDS011;54543;50.712;6.070;2023-02-28T13:47:36;4.68;;;2.58;;
67747;SDS011;54543;50.712;6.070;2023-02-28T13:50:15;3.88;;;1.88;;
67747;SDS011;54543;50.712;6.070;2023-02-28T13:55:22;3.72;;;2.33;;
67747;SDS011;54543;50.712;6.070;2023-02-28T13:57:58;4.22;;;2.17;;
67747;SDS011;54543;50.712;6.070;2023-02-28T14:03:40;3.60;;;2.40;;
67747;SDS011;54543;50.712;6.070;2023-02-28T14:09:02;3.38;;;2.17;;
67747;SDS011;54543;50.712;6.070;2023-02-28T14:11:34;3.78;;;2.55;;
67747;SDS011;54543;50.712;6.070;2023-02-28T14:14:03;3.03;;;1.90;;
67747;SDS011;54543;50.712;6.070;2023-02-28T14:16:37;4.32;;;2.30;;
67747;SDS011;54543;50.712;6.070;2023-02-28T14:19:17;4.00;;;2.60;;
67747;SDS011;54543;50.712;6.070;2023-02-28T14:27:11;3.55;;;2.50;;
67747;SDS011;54543;50.712;6.070;2023-02-28T14:38:29;4.75;;;2.50;;
67747;SDS011;54543;50.712;6.070;2023-02-28T14:40:58;4.57;;;2.47;;
67747;SDS011;54543;50.712;6.070;2023-02-28T14:43:28;2.95;;;2.22;;
67747;SDS011;54543;50.712;6.070;2023-02-28T14:45:54;3.95;;;2.38;;
67747;SDS011;54543;50.712;6.070;2023-02-28T14:48:23;4.90;;;2.53;;
67747;SDS011;54543;50.712;6.070;2023-02-28T14:50:54;3.63;;;2.22;;
67747;SDS011;54543;50.712;6.070;2023-02-28T14:53:22;4.18;;;2.42;;
67747;SDS011;54543;50.712;6.070;2023-02-28T14:55:54;4.00;;;2.50;;
67747;SDS011;54543;50.712;6.070;2023-02-28T14:58:30;3.33;;;2.20;;
67747;SDS011;54543;50.712;6.070;2023-02-28T15:00:58;4.22;;;2.47;;
67747;SDS011;54543;50.712;6.070;2023-02-28T15:03:32;3.70;;;2.30;;
67747;SDS011;54543;50.712;6.070;2023-02-28T15:05:59;3.28;;;2.13;;
67747;SDS011;54543;50.712;6.070;2023-02-28T15:08:27;3.97;;;2.80;;
67747;SDS011;54543;50.712;6.070;2023-02-28T15:10:58;4.53;;;2.88;;
67747;SDS011;54543;50.712;6.070;2023-02-28T15:13:30;4.00;;;2.47;;
67747;SDS011;54543;50.712;6.070;2023-02-28T15:16:03;3.78;;;2.50;;
67747;SDS011;54543;50.712;6.070;2023-02-28T15:21:27;4.88;;;2.40;;
67747;SDS011;54543;50.712;6.070;2023-02-28T15:23:56;3.88;;;2.67;;
67747;SDS011;54543;50.712;6.070;2023-02-28T15:26:37;3.40;;;2.20;;
67747;SDS011;54543;50.712;6.070;2023-02-28T15:29:10;4.53;;;2.60;;
67747;SDS011;54543;50.712;6.070;2023-02-28T15:31:48;4.60;;;2.45;;
67747;SDS011;54543;50.712;6.070;2023-02-28T15:34:19;4.13;;;2.55;;
67747;SDS011;54543;50.712;6.070;2023-02-28T15:36:47;3.55;;;2.30;;
67747;SDS011;54543;50.712;6.070;2023-02-28T15:39:25;3.58;;;2.10;;
67747;SDS011;54543;50.712;6.070;2023-02-28T15:42:12;4.18;;;2.53;;
67747;SDS011;54543;50.712;6.070;2023-02-28T15:44:42;4.53;;;2.50;;
67747;SDS011;54543;50.712;6.070;2023-02-28T15:47:14;3.60;;;2.38;;
67747;SDS011;54543;50.712;6.070;2023-02-28T15:52:16;3.70;;;2.30;;
67747;SDS011;54543;50.712;6.070;2023-02-28T15:54:48;2.88;;;2.10;;
67747;SDS011;54543;50.712;6.070;2023-02-28T15:57:24;3.78;;;2.15;;
67747;SDS011;54543;50.712;6.070;2023-02-28T15:59:54;2.88;;;1.80;;
67747;SDS011;54543;50.712;6.070;2023-02-28T16:07:33;4.95;;;2.80;;
67747;SDS011;54543;50.712;6.070;2023-02-28T16:10:08;3.67;;;2.55;;
67747;SDS011;54543;50.712;6.070;2023-02-28T16:12:36;3.88;;;2.55;;
67747;SDS011;54543;50.712;6.070;2023-02-28T16:15:06;3.40;;;2.25;;
67747;SDS011;54543;50.712;6.070;2023-02-28T16:17:51;4.50;;;2.47;;
67747;SDS011;54543;50.712;6.070;2023-02-28T16:20:18;4.07;;;2.78;;
67747;SDS011;54543;50.712;6.070;2023-02-28T16:22:46;4.93;;;2.67;;
67747;SDS011;54543;50.712;6.070;2023-02-28T16:25:13;3.50;;;2.42;;
67747;SDS011;54543;50.712;6.070;2023-02-28T16:27:39;3.97;;;2.60;;
67747;SDS011;54543;50.712;6.070;2023-02-28T16:30:07;3.75;;;2.20;;
67747;SDS011;54543;50.712;6.070;2023-02-28T16:32:36;3.83;;;2.65;;
67747;SDS011;54543;50.712;6.070;2023-02-28T16:35:02;3.65;;;2.72;;
67747;SDS011;54543;50.712;6.070;2023-02-28T16:37:28;3.80;;;2.50;;
67747;SDS011;54543;50.712;6.070;2023-02-28T16:39:54;4.47;;;2.40;;
67747;SDS011;54543;50.712;6.070;2023-02-28T16:42:25;4.38;;;2.75;;
67747;SDS011;54543;50.712;6.070;2023-02-28T16:44:53;4.03;;;2.55;;
67747;SDS011;54543;50.712;6.070;2023-02-28T16:47:19;4.00;;;2.58;;
67747;SDS011;54543;50.712;6.070;2023-02-28T16:49:45;3.35;;;2.42;;
67747;SDS011;54543;50.712;6.070;2023-02-28T16:52:12;3.40;;;2.35;;
67747;SDS011;54543;50.712;6.070;2023-02-28T16:54:39;3.67;;;2.50;;
67747;SDS011;54543;50.712;6.070;2023-02-28T16:57:06;4.53;;;2.58;;
67747;SDS011;54543;50.712;6.070;2023-02-28T16:59:40;4.13;;;2.23;;
67747;SDS011;54543;50.712;6.070;2023-02-28T17:02:18;3.17;;;2.00;;
67747;SDS011;54543;50.712;6.070;2023-02-28T17:04:44;3.33;;;2.40;;
67747;SDS011;54543;50.712;6.070;2023-02-28T17:07:11;3.45;;;2.30;;
67747;SDS011;54543;50.712;6.070;2023-02-28T17:09:38;3.05;;;2.10;;
67747;SDS011;54543;50.712;6.070;2023-02-28T17:12:04;4.35;;;2.22;;
67747;SDS011;54543;50.712;6.070;2023-02-28T17:14:30;4.18;;;2.40;;
67747;SDS011;54543;50.712;6.070;2023-02-28T17:16:56;3.75;;;2.30;;
67747;SDS011;54543;50.712;6.070;2023-02-28T17:19:21;3.17;;;2.22;;
67747;SDS011;54543;50.712;6.070;2023-02-28T17:21:47;3.42;;;2.30;;
67747;SDS011;54543;50.712;6.070;2023-02-28T17:24:12;4.47;;;2.20;;
67747;SDS011;54543;50.712;6.070;2023-02-28T17:26:42;3.25;;;1.88;;
67747;SDS011;54543;50.712;6.070;2023-02-28T17:29:18;4.70;;;2.08;;
67747;SDS011;54543;50.712;6.070;2023-02-28T17:31:46;3.28;;;2.30;;
67747;SDS011;54543;50.712;6.070;2023-02-28T17:34:12;3.83;;;2.30;;
67747;SDS011;54543;50.712;6.070;2023-02-28T17:36:43;4.18;;;2.03;;